Горин

Карта отелей и гостиниц, располагающихся рядом с аэропортом Горин :



Горин Хабаровский край 51° 10' 18.9588" N, 136° 38' 5.5212" E

Горин Хабаровский край 51° 10' 18.9588" N, 136° 38' 5.5212" E
Код аэродрома ИКАО: 
ZC34
Код аэродрома RU: 
ЗЦ34
Координаты: 
N51.17193° E136.63487°
Превышение над уровнем моря : 
114
Основная полоса: 
02/20
Курс магнитный: 
024/204
Длина основной ВПП: 
3120
Ширина основной ВПП: 
100
Покрытие основной ВПП: 
Твёрдое (асфальтобетон)
Тип: 
Аэродром
Освещение ВПП: 
Нет
Класс аэродрома: 
Статус: 
Недействующий
Принадлежность: 
МО
Сайт: 
E-mail аэродрома: 
Страна: 
Россия
Регион: 
Хабаровский край
Город: 
Дополнительная информация: 
ВПП покрыта растительностью. Посадка невозможна.

Найти трансфер

С помощью этой формы Вы можете найти трансфер из аэропорта Горин в город, аэропорт или вокзал:

Карта места

Javascript is required to view this map.

Погода в аэропортах:

Авиационная погода в Борисполе

Регион: 
Погода METAR: 
UKBB 210400Z 20002MPS 9999 -RA OVC040 02/01 Q1022 R18L/190055 R18R/CLRD// NOSIG
Время наблюдения: 
2020-02-21T04:00:00Z
Температура C: 
2.0
Точка росы: 
1.0
Направление ветра: 
200
Скорость ветра: 
4
Метеорологическая видимость: 
6.21
Явления погоды: 
-RA
Условия полета: 
VFR
Аэропорт подробнее: 

Авиационная погода в Угольном

Регион: 
Погода METAR: 
UHMA 210400Z 34006MPS 9999 DRSN VCFG NSC M25/M28 Q1007 R01/60D NOSIG RMK TDZ R01/34006G07MPS END R01/35004G06MPS QFE752/1002
Время наблюдения: 
2020-02-21T04:00:00Z
Температура C: 
-25.0
Точка росы: 
-28.0
Направление ветра: 
340
Скорость ветра: 
12
Метеорологическая видимость: 
6.21
Явления погоды: 
DRSN VCFG
Условия полета: 
VFR
Аэропорт подробнее: 

Авиационная погода в Кневичи

Регион: 
Погода METAR: 
UHWW 210400Z 10002MPS 060V130 5000 -SHSN BKN020CB M01/M04 Q1029 R25L/0///70 TEMPO 0400 +SHSN VV002 RMK QFE770
Время наблюдения: 
2020-02-21T04:00:00Z
Температура C: 
-1.0
Точка росы: 
-4.0
Направление ветра: 
100
Скорость ветра: 
4
Метеорологическая видимость: 
3.11
Явления погоды: 
-SHSN
Условия полета: 
MVFR
Аэропорт подробнее: 

Авиационная погода в Ивало

Регион: 
Погода METAR: 
EFIV 210350Z AUTO 19010KT 150V220 9999 -SHSN OVC014 M05/M08 Q0987
Время наблюдения: 
2020-02-21T03:50:00Z
Температура C: 
-5.0
Точка росы: 
-8.0
Направление ветра: 
190
Скорость ветра: 
10
Метеорологическая видимость: 
6.21
Явления погоды: 
-SHSN
Условия полета: 
MVFR